Time;durP1;ratioP1;P1;durP2;ratioP2;P2;SDS_P1;SDS_P2;PMS_P1;PMS_P2;Temp;Humidity;BMP_temperature;BMP_pressure;BME280_temperature;BME280_humidity;BME280_pressure;Samples;Min_cycle;Max_cycle;Signal;HPM_P1;HPM_P2
2022/10/12 00:01:49;;;;;;;;;;;11.60;99.90;;;;;;5078341;28;19920;-84
2022/10/12 00:04:14;;;;;;;;;;;11.60;99.90;;;;;;5073384;28;19921;-83
2022/10/12 00:06:40;;;;;;;;;;;11.60;99.90;;;;;;5072565;28;20310;-84
2022/10/12 00:09:05;;;;;;;;;;;11.70;99.90;;;;;;5079601;28;19920;-83
2022/10/12 00:11:31;;;;;;;;;;;11.70;99.90;;;;;;5082333;28;20623;-83
2022/10/12 00:13:57;;;;;;;;;;;11.80;99.90;;;;;;5074961;28;19919;-83
2022/10/12 00:16:22;;;;;;;;;;;11.70;99.90;;;;;;5093787;28;19924;-84
2022/10/12 00:18:51;;;;;;;;;;;11.70;99.90;;;;;;5081367;28;19923;-84
2022/10/12 00:21:17;;;;;;;;;;;11.60;99.90;;;;;;5070909;28;19964;-83
2022/10/12 00:23:43;;;;;;;;;;;11.60;99.90;;;;;;5088082;28;19916;-83
2022/10/12 00:26:13;;;;;;;;;;;11.60;99.90;;;;;;5081687;28;20429;-84
2022/10/12 00:28:39;;;;;;;;;;;11.60;99.90;;;;;;5079287;28;19916;-83
2022/10/12 00:31:08;;;;;;;;;;;11.80;99.90;;;;;;5064474;28;19998;-84
2022/10/12 00:33:34;;;;;;;;;;;11.70;99.90;;;;;;5056424;28;20457;-84
2022/10/12 00:36:09;;;;;;;;;;;11.80;99.90;;;;;;5054017;28;19917;-84
2022/10/12 00:38:34;;;;;;;;;;;11.90;99.90;;;;;;5049819;28;20022;-84
2022/10/12 00:41:00;;;;;;;;;;;11.90;99.90;;;;;;5054509;28;20405;-84
2022/10/12 00:43:29;;;;;;;;;;;11.90;99.90;;;;;;5056616;28;20097;-84
2022/10/12 00:45:56;;;;;;;;;;;11.70;99.90;;;;;;5058686;28;19932;-84
2022/10/12 00:48:22;;;;;;;;;;;11.70;99.90;;;;;;5063523;28;19916;-84
2022/10/12 00:50:47;;;;;;;;;;;11.80;99.90;;;;;;5052578;28;19956;-84
2022/10/12 00:53:18;;;;;;;;;;;11.90;99.90;;;;;;5073469;28;19927;-84
2022/10/12 00:55:46;;;;;;;;;;;11.80;99.90;;;;;;5078656;28;20382;-84
2022/10/12 00:58:12;;;;;;;;;;;11.80;99.90;;;;;;5068790;28;20308;-84
2022/10/12 01:00:38;;;;;;;;;;;11.70;99.90;;;;;;5060656;28;19917;-83
2022/10/12 01:03:05;;;;;;;;;;;11.80;99.90;;;;;;5058779;28;19912;-84
2022/10/12 01:05:30;;;;;;;;;;;11.90;99.90;;;;;;5056109;28;20670;-84
2022/10/12 01:07:58;;;;;;;;;;;11.70;99.90;;;;;;5057069;28;20262;-84
2022/10/12 01:10:24;;;;;;;;;;;11.70;99.90;;;;;;5062126;28;19916;-83
2022/10/12 01:12:49;;;;;;;;;;;11.70;99.90;;;;;;5056659;28;19962;-84
2022/10/12 01:15:15;;;;;;;;;;;11.70;99.90;;;;;;5056882;28;19973;-84
2022/10/12 01:17:40;;;;;;;;;;;11.70;99.90;;;;;;5057978;28;19955;-83
2022/10/12 01:20:09;;;;;;;;;;;11.60;99.90;;;;;;5053759;28;20015;-83
2022/10/12 01:22:41;;;;;;;;;;;11.80;99.90;;;;;;5060781;28;20326;-84
2022/10/12 01:25:27;;;;;;;;;;;11.60;99.90;;;;;;5056203;28;19921;-83
2022/10/12 01:27:56;;;;;;;;;;;11.70;99.90;;;;;;5050618;28;20035;-84
2022/10/12 01:30:41;;;;;;;;;;;11.70;99.90;;;;;;5045667;28;19925;-84
2022/10/12 01:33:24;;;;;;;;;;;11.80;99.90;;;;;;5093550;28;20278;-83
2022/10/12 01:35:58;;;;;;;;;;;11.70;99.90;;;;;;5072667;28;19916;-84
2022/10/12 01:38:30;;;;;;;;;;;11.80;99.90;;;;;;5074602;28;19912;-84
2022/10/12 01:41:15;;;;;;;;;;;11.90;99.90;;;;;;5076738;28;19927;-83
2022/10/12 01:43:42;;;;;;;;;;;11.80;99.90;;;;;;5074104;28;19912;-84
2022/10/12 01:46:16;;;;;;;;;;;11.70;99.90;;;;;;5079122;28;19916;-83
2022/10/12 01:48:43;;;;;;;;;;;11.70;99.90;;;;;;5067459;28;19923;-83
2022/10/12 01:51:10;;;;;;;;;;;11.70;99.90;;;;;;5071454;28;19919;-84
2022/10/12 01:54:05;;;;;;;;;;;11.70;99.90;;;;;;5082453;28;19920;-84
2022/10/12 01:56:36;;;;;;;;;;;11.80;99.90;;;;;;5067506;28;19925;-84
2022/10/12 01:59:07;;;;;;;;;;;11.80;99.90;;;;;;5072218;28;19923;-84
2022/10/12 02:02:02;;;;;;;;;;;11.80;99.90;;;;;;5080936;28;19991;-84
2022/10/12 02:04:34;;;;;;;;;;;11.80;99.90;;;;;;5056884;28;19924;-84
2022/10/12 02:07:12;;;;;;;;;;;11.80;99.90;;;;;;5076528;28;20015;-84
2022/10/12 02:09:38;;;;;;;;;;;11.90;99.90;;;;;;5083403;28;20357;-84
2022/10/12 02:12:10;;;;;;;;;;;12.00;99.90;;;;;;5077408;28;19923;-83
2022/10/12 02:14:39;;;;;;;;;;;12.00;99.90;;;;;;5073236;28;20300;-84
2022/10/12 02:17:06;;;;;;;;;;;11.90;99.90;;;;;;5083027;28;19963;-83
2022/10/12 02:19:36;;;;;;;;;;;11.90;99.90;;;;;;5077446;28;19913;-83
2022/10/12 02:22:03;;;;;;;;;;;11.80;99.90;;;;;;5060604;28;19965;-84
2022/10/12 02:24:30;;;;;;;;;;;11.90;99.90;;;;;;5080125;28;19920;-83
2022/10/12 02:26:55;;;;;;;;;;;11.80;99.90;;;;;;5078299;28;19928;-84
2022/10/12 02:29:29;;;;;;;;;;;11.90;99.90;;;;;;5076405;28;19961;-83
2022/10/12 02:32:02;;;;;;;;;;;11.80;99.90;;;;;;5073083;28;19925;-83
2022/10/12 02:34:47;;;;;;;;;;;11.90;99.90;;;;;;5057203;28;19917;-84
2022/10/12 02:37:28;;;;;;;;;;;12.00;99.90;;;;;;5049437;28;19921;-83
2022/10/12 02:39:54;;;;;;;;;;;12.00;99.90;;;;;;5067791;28;19913;-84
2022/10/12 02:42:29;;;;;;;;;;;12.00;99.90;;;;;;5061666;28;20386;-84
2022/10/12 02:44:56;;;;;;;;;;;11.90;99.90;;;;;;5050627;28;19928;-83
2022/10/12 02:47:24;;;;;;;;;;;11.80;99.90;;;;;;5066219;28;19916;-84
2022/10/12 02:49:52;;;;;;;;;;;11.90;99.90;;;;;;5058441;28;20221;-84
2022/10/12 02:52:18;;;;;;;;;;;11.80;99.90;;;;;;5056579;28;19935;-83
2022/10/12 02:54:44;;;;;;;;;;;11.60;99.90;;;;;;5061440;28;19925;-84
2022/10/12 02:57:09;;;;;;;;;;;11.70;99.90;;;;;;5057276;28;20007;-84
2022/10/12 02:59:35;;;;;;;;;;;11.70;99.90;;;;;;5052878;28;20513;-83
2022/10/12 03:02:00;;;;;;;;;;;11.80;99.90;;;;;;5059658;28;20410;-84
2022/10/12 03:04:26;;;;;;;;;;;11.90;99.90;;;;;;5055139;28;20256;-83
2022/10/12 03:06:51;;;;;;;;;;;11.90;99.90;;;;;;5052751;28;20454;-84
2022/10/12 03:09:17;;;;;;;;;;;12.00;99.90;;;;;;5066820;28;19955;-84
2022/10/12 03:11:43;;;;;;;;;;;11.90;99.90;;;;;;5059144;28;19963;-84
2022/10/12 03:14:12;;;;;;;;;;;11.80;99.90;;;;;;5050983;28;19913;-84
2022/10/12 03:16:37;;;;;;;;;;;11.90;99.90;;;;;;5060273;28;19981;-84
2022/10/12 03:19:03;;;;;;;;;;;12.00;99.90;;;;;;5062158;28;19916;-84
2022/10/12 03:21:28;;;;;;;;;;;11.90;99.90;;;;;;5045004;28;19913;-84
2022/10/12 03:23:54;;;;;;;;;;;11.90;99.90;;;;;;5062586;28;20393;-84
2022/10/12 03:26:19;;;;;;;;;;;11.90;99.90;;;;;;5060341;28;19928;-83
2022/10/12 03:28:45;;;;;;;;;;;12.00;99.90;;;;;;5052771;28;20363;-84
2022/10/12 03:31:10;;;;;;;;;;;12.00;99.90;;;;;;5063545;28;20363;-84
2022/10/12 03:33:36;;;;;;;;;;;12.00;99.90;;;;;;5061820;28;20429;-83
2022/10/12 03:36:02;;;;;;;;;;;12.00;99.90;;;;;;5054868;28;19924;-84
2022/10/12 03:38:27;;;;;;;;;;;12.10;99.90;;;;;;5055708;28;19913;-84
2022/10/12 03:40:53;;;;;;;;;;;12.10;99.90;;;;;;5079368;28;19964;-84
2022/10/12 03:43:18;;;;;;;;;;;12.20;99.90;;;;;;5079018;28;19921;-84
2022/10/12 03:45:44;;;;;;;;;;;12.10;99.90;;;;;;5069707;28;19920;-84
2022/10/12 03:48:09;;;;;;;;;;;12.00;99.90;;;;;;5061246;28;19921;-84
2022/10/12 03:50:35;;;;;;;;;;;11.90;99.90;;;;;;5058732;28;20019;-84
2022/10/12 03:53:02;;;;;;;;;;;12.00;99.90;;;;;;5058154;28;19951;-83
2022/10/12 03:55:27;;;;;;;;;;;12.10;99.90;;;;;;5060964;28;20572;-84
2022/10/12 03:57:53;;;;;;;;;;;12.20;99.90;;;;;;5051289;28;19917;-84
2022/10/12 04:00:18;;;;;;;;;;;12.00;99.90;;;;;;5062744;28;19921;-84
2022/10/12 04:02:44;;;;;;;;;;;12.20;99.90;;;;;;5058090;28;19924;-84
2022/10/12 04:05:09;;;;;;;;;;;12.10;99.90;;;;;;5052765;28;20450;-84
2022/10/12 04:07:35;;;;;;;;;;;12.10;99.90;;;;;;5056801;28;20366;-84
2022/10/12 04:10:00;;;;;;;;;;;12.00;99.90;;;;;;5052274;28;20330;-84
2022/10/12 04:12:26;;;;;;;;;;;12.00;99.90;;;;;;5058925;28;19921;-84
2022/10/12 04:14:51;;;;;;;;;;;12.00;99.90;;;;;;5059551;28;20390;-83
2022/10/12 04:17:17;;;;;;;;;;;12.00;99.90;;;;;;5062847;28;20362;-83
2022/10/12 04:19:43;;;;;;;;;;;12.00;99.90;;;;;;5055685;28;19923;-84
2022/10/12 04:22:08;;;;;;;;;;;12.10;99.90;;;;;;5058405;28;19948;-85
2022/10/12 04:24:34;;;;;;;;;;;12.20;99.90;;;;;;5058727;28;19917;-85
2022/10/12 04:26:59;;;;;;;;;;;12.00;99.90;;;;;;5055506;28;20383;-85
2022/10/12 04:29:25;;;;;;;;;;;12.10;99.90;;;;;;5055752;28;19928;-85
2022/10/12 04:31:51;;;;;;;;;;;12.10;99.90;;;;;;5061693;28;20260;-83
2022/10/12 04:34:16;;;;;;;;;;;12.30;99.90;;;;;;5053603;28;19916;-84
2022/10/12 04:36:42;;;;;;;;;;;12.10;99.90;;;;;;5058497;28;19920;-84
2022/10/12 04:39:07;;;;;;;;;;;12.20;99.90;;;;;;5063128;28;19916;-83
2022/10/12 04:41:42;;;;;;;;;;;12.30;99.90;;;;;;5057866;28;19917;-85
2022/10/12 04:44:07;;;;;;;;;;;12.30;99.90;;;;;;5055341;28;19917;-84
2022/10/12 04:46:33;;;;;;;;;;;12.40;99.90;;;;;;5061785;28;20050;-85
2022/10/12 04:48:59;;;;;;;;;;;12.40;99.90;;;;;;5053129;28;19995;-85
2022/10/12 04:51:24;;;;;;;;;;;12.30;99.90;;;;;;5055711;28;19925;-85
2022/10/12 04:53:50;;;;;;;;;;;12.50;99.90;;;;;;5055633;28;19913;-85
2022/10/12 04:56:15;;;;;;;;;;;12.40;99.90;;;;;;5050008;28;19924;-85
2022/10/12 04:58:41;;;;;;;;;;;12.30;99.90;;;;;;5053479;28;20294;-84
2022/10/12 05:01:06;;;;;;;;;;;12.40;99.90;;;;;;5057211;28;20311;-83
2022/10/12 05:03:32;;;;;;;;;;;12.40;99.90;;;;;;5056891;28;20367;-83
2022/10/12 05:05:57;;;;;;;;;;;12.50;99.90;;;;;;5054771;28;20355;-83
2022/10/12 05:08:23;;;;;;;;;;;12.30;99.90;;;;;;5061782;28;20024;-86
2022/10/12 05:10:49;;;;;;;;;;;12.40;99.90;;;;;;5056296;28;19924;-86
2022/10/12 05:13:14;;;;;;;;;;;12.30;99.90;;;;;;5057414;28;19947;-86
2022/10/12 05:15:55;;;;;;;;;;;12.30;99.90;;;;;;5059220;28;19936;-83
2022/10/12 05:18:21;;;;;;;;;;;12.30;99.90;;;;;;5057506;28;19919;-83
2022/10/12 05:20:47;;;;;;;;;;;12.10;99.90;;;;;;5052594;28;19917;-82
2022/10/12 05:23:12;;;;;;;;;;;12.00;99.90;;;;;;5056973;28;19916;-82
2022/10/12 05:25:38;;;;;;;;;;;12.20;99.90;;;;;;5053105;28;19917;-82
2022/10/12 05:28:03;;;;;;;;;;;12.20;99.90;;;;;;5054542;28;19927;-82
2022/10/12 05:30:29;;;;;;;;;;;12.10;99.90;;;;;;5045796;28;19921;-82
2022/10/12 05:32:54;;;;;;;;;;;12.10;99.90;;;;;;5056174;28;20314;-82
2022/10/12 05:35:20;;;;;;;;;;;12.10;99.90;;;;;;5053346;28;20355;-82
2022/10/12 05:37:46;;;;;;;;;;;12.00;99.90;;;;;;5059796;28;19921;-82
2022/10/12 05:40:11;;;;;;;;;;;12.00;99.90;;;;;;5056242;28;20011;-81
2022/10/12 05:42:37;;;;;;;;;;;12.20;99.90;;;;;;5050037;28;19923;-82
2022/10/12 05:45:03;;;;;;;;;;;12.30;99.90;;;;;;5061712;28;19927;-83
2022/10/12 05:47:29;;;;;;;;;;;12.10;99.90;;;;;;5053806;28;20317;-82
2022/10/12 05:49:55;;;;;;;;;;;12.20;99.90;;;;;;5053800;28;19983;-81
2022/10/12 05:52:21;;;;;;;;;;;12.10;99.90;;;;;;5059160;28;20577;-82
2022/10/12 05:54:47;;;;;;;;;;;12.30;99.90;;;;;;5059161;28;19931;-82
2022/10/12 05:57:14;;;;;;;;;;;12.20;99.90;;;;;;5055708;28;19928;-82
2022/10/12 05:59:40;;;;;;;;;;;12.20;99.90;;;;;;5058632;28;19917;-82
2022/10/12 06:02:06;;;;;;;;;;;12.30;99.90;;;;;;5076317;28;19943;-82
2022/10/12 06:04:31;;;;;;;;;;;12.30;99.90;;;;;;5073817;28;20362;-82
2022/10/12 06:06:57;;;;;;;;;;;12.30;99.90;;;;;;5078831;28;20336;-82
2022/10/12 06:09:22;;;;;;;;;;;12.20;99.90;;;;;;5081908;28;19916;-82
2022/10/12 06:11:48;;;;;;;;;;;12.20;99.90;;;;;;5071362;28;19951;-82
2022/10/12 06:14:14;;;;;;;;;;;12.30;99.90;;;;;;5073783;28;19942;-82
2022/10/12 06:16:40;;;;;;;;;;;12.30;99.90;;;;;;5080053;28;19924;-82
2022/10/12 06:19:05;;;;;;;;;;;12.40;99.90;;;;;;5076755;28;19950;-82
2022/10/12 06:21:31;;;;;;;;;;;12.40;99.90;;;;;;5077960;28;19920;-82
2022/10/12 06:23:56;;;;;;;;;;;12.20;99.90;;;;;;5089907;28;19954;-82
2022/10/12 06:26:23;;;;;;;;;;;12.30;99.90;;;;;;5096077;28;20418;-82
2022/10/12 06:28:49;;;;;;;;;;;12.30;99.90;;;;;;5074190;28;19917;-84
2022/10/12 06:31:14;;;;;;;;;;;12.30;99.90;;;;;;5057825;28;19917;-82
2022/10/12 06:33:40;;;;;;;;;;;12.30;99.90;;;;;;5056042;28;20305;-82
2022/10/12 06:36:05;;;;;;;;;;;12.40;99.90;;;;;;5052714;28;20601;-82
2022/10/12 06:38:31;;;;;;;;;;;12.50;99.90;;;;;;5058353;28;19927;-82
2022/10/12 06:40:56;;;;;;;;;;;12.50;99.90;;;;;;5047802;28;19921;-82
2022/10/12 06:43:23;;;;;;;;;;;12.50;99.90;;;;;;5051618;28;19927;-82
2022/10/12 06:45:48;;;;;;;;;;;12.30;99.90;;;;;;5056915;28;20385;-82
2022/10/12 06:48:14;;;;;;;;;;;12.40;99.90;;;;;;5057603;28;19920;-82
2022/10/12 06:50:39;;;;;;;;;;;12.50;99.90;;;;;;5054406;28;19960;-82
2022/10/12 06:53:05;;;;;;;;;;;12.50;99.90;;;;;;5061337;28;19927;-82
2022/10/12 06:55:30;;;;;;;;;;;12.60;99.90;;;;;;5054503;28;19924;-82
2022/10/12 06:57:56;;;;;;;;;;;12.70;99.90;;;;;;5042334;28;20366;-83
2022/10/12 07:00:21;;;;;;;;;;;12.60;99.90;;;;;;5057768;28;20322;-82
2022/10/12 07:02:47;;;;;;;;;;;12.80;99.90;;;;;;5055645;28;20685;-82
2022/10/12 07:05:14;;;;;;;;;;;12.80;99.90;;;;;;5046878;28;20682;-82
2022/10/12 07:07:39;;;;;;;;;;;12.60;99.90;;;;;;5059293;28;19924;-82
2022/10/12 07:10:05;;;;;;;;;;;12.60;99.90;;;;;;5058598;28;19916;-82
2022/10/12 07:12:31;;;;;;;;;;;12.60;99.90;;;;;;5054050;28;19970;-82
2022/10/12 07:14:57;;;;;;;;;;;12.60;99.90;;;;;;5061504;28;20550;-82
2022/10/12 07:17:23;;;;;;;;;;;12.50;99.90;;;;;;5058874;28;19921;-82
2022/10/12 07:19:48;;;;;;;;;;;12.60;99.90;;;;;;5050511;28;20278;-82
2022/10/12 07:22:14;;;;;;;;;;;12.70;99.90;;;;;;5062247;28;20019;-80
2022/10/12 07:24:39;;;;;;;;;;;12.90;99.90;;;;;;5063602;28;20358;-80
2022/10/12 07:27:07;;;;;;;;;;;12.80;99.90;;;;;;5054115;28;20268;-80
2022/10/12 07:29:32;;;;;;;;;;;13.00;99.90;;;;;;5060016;28;19951;-80
2022/10/12 07:31:58;;;;;;;;;;;13.00;99.90;;;;;;5048072;28;20387;-80
2022/10/12 07:34:25;;;;;;;;;;;13.10;99.90;;;;;;5051221;28;19917;-80
2022/10/12 07:36:50;;;;;;;;;;;12.90;99.90;;;;;;5052215;28;19990;-80
2022/10/12 07:39:16;;;;;;;;;;;12.80;99.90;;;;;;5062548;28;19924;-80
2022/10/12 07:41:41;;;;;;;;;;;12.90;99.90;;;;;;5047974;28;19913;-80
2022/10/12 07:47:28;;;;;;;;;;;12.80;99.90;;;;;;5060105;28;20533;-83
2022/10/12 07:49:53;;;;;;;;;;;12.70;99.90;;;;;;5051413;28;19944;-83
2022/10/12 07:52:19;;;;;;;;;;;12.80;99.90;;;;;;5054749;28;19955;-82
2022/10/12 07:54:45;;;;;;;;;;;12.90;99.90;;;;;;5062679;28;19927;-83
2022/10/12 07:57:10;;;;;;;;;;;13.00;99.90;;;;;;5071722;28;19982;-82
2022/10/12 07:59:36;;;;;;;;;;;13.10;99.90;;;;;;5053288;28;19917;-83
2022/10/12 08:02:01;;;;;;;;;;;13.00;99.90;;;;;;5055697;28;20024;-83
2022/10/12 08:04:27;;;;;;;;;;;12.90;99.90;;;;;;5048359;28;20386;-82
2022/10/12 08:06:52;;;;;;;;;;;12.90;99.90;;;;;;5042888;28;19928;-83
2022/10/12 08:09:18;;;;;;;;;;;13.10;99.90;;;;;;5054078;28;20340;-83
2022/10/12 08:11:43;;;;;;;;;;;13.10;99.90;;;;;;5057552;28;19917;-83
2022/10/12 08:14:13;;;;;;;;;;;13.20;99.80;;;;;;5049529;28;19995;-82
2022/10/12 08:16:40;;;;;;;;;;;13.20;99.70;;;;;;5042762;28;19912;-83
2022/10/12 08:19:05;;;;;;;;;;;13.10;99.90;;;;;;5050111;28;19956;-83
2022/10/12 08:21:31;;;;;;;;;;;13.20;99.90;;;;;;5053262;28;20496;-82
2022/10/12 08:23:56;;;;;;;;;;;13.40;99.50;;;;;;5048908;28;19927;-82
2022/10/12 08:26:22;;;;;;;;;;;13.60;98.90;;;;;;5060912;28;20004;-81
2022/10/12 08:28:48;;;;;;;;;;;13.80;97.90;;;;;;5047363;28;20279;-82
2022/10/12 08:31:15;;;;;;;;;;;13.90;96.70;;;;;;5045357;28;19929;-83
2022/10/12 08:33:41;;;;;;;;;;;14.10;96.30;;;;;;5041415;28;19909;-80
2022/10/12 08:36:06;;;;;;;;;;;14.10;95.90;;;;;;5052178;28;19926;-80
2022/10/12 08:38:37;;;;;;;;;;;14.10;95.30;;;;;;5059761;28;19917;-80
2022/10/12 08:41:02;;;;;;;;;;;14.20;95.50;;;;;;5044368;28;19940;-80
2022/10/12 08:43:46;;;;;;;;;;;14.40;94.50;;;;;;5043866;28;19944;-80
2022/10/12 08:46:12;;;;;;;;;;;14.40;94.10;;;;;;5058110;28;19921;-80
2022/10/12 08:48:40;;;;;;;;;;;14.40;93.90;;;;;;5057364;28;19923;-80
2022/10/12 08:51:09;;;;;;;;;;;14.70;94.40;;;;;;5060123;28;19920;-79
2022/10/12 08:53:47;;;;;;;;;;;14.80;93.40;;;;;;5058607;28;19916;-80
2022/10/12 08:56:17;;;;;;;;;;;15.10;92.30;;;;;;5053334;28;20387;-84
2022/10/12 08:58:42;;;;;;;;;;;15.00;92.30;;;;;;5055619;28;20375;-80
2022/10/12 09:01:08;;;;;;;;;;;14.90;91.40;;;;;;5060538;28;19928;-80
2022/10/12 09:03:41;;;;;;;;;;;14.80;91.90;;;;;;5057571;28;19917;-80
2022/10/12 09:06:11;;;;;;;;;;;15.00;90.60;;;;;;5055212;28;19916;-80
2022/10/12 09:08:49;;;;;;;;;;;15.00;91.60;;;;;;5066306;28;20350;-79
2022/10/12 09:11:26;;;;;;;;;;;15.10;91.40;;;;;;5068317;28;20489;-80
2022/10/12 09:14:00;;;;;;;;;;;15.20;90.80;;;;;;5058992;28;19938;-80
2022/10/12 09:16:27;;;;;;;;;;;15.50;90.50;;;;;;5060622;28;19924;-79
2022/10/12 09:18:56;;;;;;;;;;;15.60;90.60;;;;;;5065191;28;19916;-80
2022/10/12 09:21:23;;;;;;;;;;;15.30;88.00;;;;;;5053625;28;19938;-81
2022/10/12 09:23:49;;;;;;;;;;;15.20;90.20;;;;;;5060517;28;19917;-80
2022/10/12 09:26:16;;;;;;;;;;;15.60;88.90;;;;;;5054049;28;19932;-80
2022/10/12 09:29:03;;;;;;;;;;;15.50;88.50;;;;;;5060217;28;19925;-80
2022/10/12 09:31:38;;;;;;;;;;;15.90;86.50;;;;;;5053980;28;19924;-80
2022/10/12 09:34:05;;;;;;;;;;;16.40;86.90;;;;;;5057798;28;19977;-80
2022/10/12 09:36:38;;;;;;;;;;;16.40;83.50;;;;;;5058377;28;19920;-80
2022/10/12 09:39:06;;;;;;;;;;;16.10;84.60;;;;;;5061679;28;19917;-80
2022/10/12 09:41:33;;;;;;;;;;;16.20;83.20;;;;;;5052188;28;19917;-80
2022/10/12 09:44:00;;;;;;;;;;;15.70;83.70;;;;;;5054913;28;19928;-80
2022/10/12 09:46:35;;;;;;;;;;;15.90;83.50;;;;;;5063203;28;19959;-79
2022/10/12 09:49:00;;;;;;;;;;;16.20;84.70;;;;;;5031984;28;19916;-80
2022/10/12 09:51:26;;;;;;;;;;;16.10;82.80;;;;;;5051791;28;19924;-80
2022/10/12 09:53:54;;;;;;;;;;;15.80;82.10;;;;;;5026859;28;19924;-80
2022/10/12 09:56:29;;;;;;;;;;;16.00;84.90;;;;;;5036583;28;19928;-80
2022/10/12 09:58:57;;;;;;;;;;;16.20;83.30;;;;;;5053115;28;19955;-80
2022/10/12 10:01:25;;;;;;;;;;;16.30;81.90;;;;;;5047889;28;20555;-80
2022/10/12 10:04:06;;;;;;;;;;;16.60;80.30;;;;;;5062183;28;19920;-80
2022/10/12 10:06:32;;;;;;;;;;;16.40;80.50;;;;;;5046593;28;19966;-80
2022/10/12 10:08:58;;;;;;;;;;;16.30;79.50;;;;;;5047485;28;19917;-81
2022/10/12 10:11:25;;;;;;;;;;;16.70;78.40;;;;;;5029415;28;19917;-80
2022/10/12 10:13:52;;;;;;;;;;;16.60;75.90;;;;;;5047370;28;19917;-80
2022/10/12 10:16:20;;;;;;;;;;;16.50;78.60;;;;;;5046890;28;20019;-80
2022/10/12 10:18:47;;;;;;;;;;;16.50;80.20;;;;;;5046966;28;19925;-80
2022/10/12 10:21:28;;;;;;;;;;;16.60;78.30;;;;;;5046764;28;20383;-80
2022/10/12 10:23:55;;;;;;;;;;;16.50;79.90;;;;;;5046536;28;19913;-80
2022/10/12 10:26:22;;;;;;;;;;;16.50;79.10;;;;;;5044838;28;19913;-80
2022/10/12 10:28:49;;;;;;;;;;;16.40;77.00;;;;;;5048053;28;19923;-80
2022/10/12 10:31:20;;;;;;;;;;;16.30;78.20;;;;;;5050193;28;19944;-80
2022/10/12 10:34:23;;;;;;;;;;;16.30;78.80;;;;;;5047888;28;19925;-80
2022/10/12 10:36:51;;;;;;;;;;;16.30;76.80;;;;;;4999863;28;19996;-81
2022/10/12 10:39:25;;;;;;;;;;;15.70;75.40;;;;;;5038727;28;20402;-79
2022/10/12 10:41:52;;;;;;;;;;;15.90;80.40;;;;;;5045984;28;19919;-79
2022/10/12 10:44:25;;;;;;;;;;;15.90;80.30;;;;;;5046465;28;19913;-79
2022/10/12 10:46:51;;;;;;;;;;;15.90;79.40;;;;;;5027329;28;19921;-79
2022/10/12 10:49:33;;;;;;;;;;;16.50;78.30;;;;;;5039625;28;20016;-79
2022/10/12 10:52:00;;;;;;;;;;;16.60;74.80;;;;;;5045237;28;20394;-79
2022/10/12 10:54:28;;;;;;;;;;;16.60;74.00;;;;;;5044797;28;19923;-79
2022/10/12 10:57:01;;;;;;;;;;;16.40;74.00;;;;;;5039832;28;20306;-79
2022/10/12 10:59:36;;;;;;;;;;;16.10;76.70;;;;;;5043824;28;19928;-79
2022/10/12 11:02:14;;;;;;;;;;;16.10;76.50;;;;;;5052775;28;19917;-79
2022/10/12 11:04:44;;;;;;;;;;;16.50;75.40;;;;;;5045721;28;20353;-79
2022/10/12 11:07:32;;;;;;;;;;;16.30;74.90;;;;;;5051271;28;19913;-80
2022/10/12 11:10:01;;;;;;;;;;;16.20;77.60;;;;;;5049672;28;19917;-80
2022/10/12 11:12:36;;;;;;;;;;;15.90;77.70;;;;;;5049905;28;19916;-81
2022/10/12 11:15:07;;;;;;;;;;;16.10;78.10;;;;;;5051013;28;20009;-80
2022/10/12 11:17:34;;;;;;;;;;;15.80;75.70;;;;;;5049537;28;20032;-80
2022/10/12 11:20:18;;;;;;;;;;;15.80;76.80;;;;;;5047849;28;20003;-80
2022/10/12 11:22:54;;;;;;;;;;;15.70;76.90;;;;;;5051178;28;19975;-78
2022/10/12 11:25:22;;;;;;;;;;;16.20;77.20;;;;;;5054641;28;19975;-80
2022/10/12 11:27:48;;;;;;;;;;;15.90;77.30;;;;;;5048348;28;20248;-78
2022/10/12 11:30:21;;;;;;;;;;;16.20;79.00;;;;;;5049716;28;19924;-79
2022/10/12 11:32:48;;;;;;;;;;;16.40;76.60;;;;;;5070341;28;19920;-79
2022/10/12 11:35:25;;;;;;;;;;;16.40;76.90;;;;;;5065352;28;20294;-79
2022/10/12 11:37:54;;;;;;;;;;;16.00;76.30;;;;;;5069542;28;19916;-78
2022/10/12 11:40:24;;;;;;;;;;;16.00;76.30;;;;;;5068856;28;19916;-79
2022/10/12 11:42:51;;;;;;;;;;;16.30;73.80;;;;;;5067003;28;19970;-79
2022/10/12 11:45:32;;;;;;;;;;;16.30;78.00;;;;;;5047950;28;19955;-79
2022/10/12 11:48:12;;;;;;;;;;;16.50;74.20;;;;;;5067688;28;20380;-78
2022/10/12 11:50:40;;;;;;;;;;;16.80;74.10;;;;;;5071515;28;19917;-79
2022/10/12 11:53:07;;;;;;;;;;;17.20;71.70;;;;;;5057888;28;19921;-80
2022/10/12 11:55:51;;;;;;;;;;;17.20;71.50;;;;;;5073047;28;19921;-80
2022/10/12 11:58:21;;;;;;;;;;;17.20;72.50;;;;;;5070066;28;19920;-79
2022/10/12 12:01:05;;;;;;;;;;;16.30;74.40;;;;;;5063439;28;19917;-80
2022/10/12 12:03:31;;;;;;;;;;;16.20;74.80;;;;;;5056495;28;20429;-82
2022/10/12 12:06:16;;;;;;;;;;;16.50;75.00;;;;;;5054983;28;19935;-81
2022/10/12 12:08:42;;;;;;;;;;;16.80;73.30;;;;;;5061946;28;19936;-80
2022/10/12 12:11:20;;;;;;;;;;;16.30;75.50;;;;;;5038211;28;19991;-81
2022/10/12 12:13:45;;;;;;;;;;;16.40;76.10;;;;;;5060385;28;19917;-81
2022/10/12 12:16:11;;;;;;;;;;;16.60;74.50;;;;;;5059527;28;19923;-81
2022/10/12 12:18:55;;;;;;;;;;;16.60;73.80;;;;;;5056375;28;20621;-79
2022/10/12 12:21:21;;;;;;;;;;;16.30;76.60;;;;;;5064143;28;19917;-79
2022/10/12 12:23:46;;;;;;;;;;;16.30;74.80;;;;;;5060349;28;19928;-80
2022/10/12 12:26:12;;;;;;;;;;;16.40;75.00;;;;;;5056317;28;20503;-81
2022/10/12 12:28:39;;;;;;;;;;;16.50;75.10;;;;;;5059075;28;19912;-81
2022/10/12 12:31:08;;;;;;;;;;;16.40;75.20;;;;;;5052970;28;19920;-81
2022/10/12 12:33:37;;;;;;;;;;;16.80;74.00;;;;;;5048573;28;19919;-80
2022/10/12 12:36:05;;;;;;;;;;;16.50;75.70;;;;;;5048994;28;19931;-80
2022/10/12 12:38:36;;;;;;;;;;;16.80;74.40;;;;;;5050043;28;19997;-81
2022/10/12 12:41:07;;;;;;;;;;;16.70;73.30;;;;;;5049789;28;19917;-81
2022/10/12 12:43:35;;;;;;;;;;;16.20;75.60;;;;;;5046419;28;20012;-81
2022/10/12 12:46:03;;;;;;;;;;;16.40;75.10;;;;;;5049096;28;19948;-81
2022/10/12 12:48:55;;;;;;;;;;;16.60;76.00;;;;;;5035753;28;19921;-81
2022/10/12 12:51:23;;;;;;;;;;;16.50;75.40;;;;;;5056419;28;20363;-81
2022/10/12 12:53:55;;;;;;;;;;;16.40;75.80;;;;;;5058428;28;19924;-81
2022/10/12 12:56:20;;;;;;;;;;;16.20;76.60;;;;;;5056086;28;20016;-81
2022/10/12 12:59:15;;;;;;;;;;;16.20;76.40;;;;;;5060676;28;20003;-80
2022/10/12 13:01:47;;;;;;;;;;;16.20;75.70;;;;;;5057888;28;19955;-80
2022/10/12 13:04:24;;;;;;;;;;;15.90;74.80;;;;;;5072956;28;19912;-81
2022/10/12 13:06:56;;;;;;;;;;;16.00;75.10;;;;;;5076629;28;19923;-79
2022/10/12 13:09:30;;;;;;;;;;;16.10;77.40;;;;;;5073715;28;20002;-79
2022/10/12 13:12:02;;;;;;;;;;;16.40;75.30;;;;;;5069623;28;19916;-82
2022/10/12 13:14:32;;;;;;;;;;;16.50;74.00;;;;;;5061190;28;19916;-81
2022/10/12 13:17:16;;;;;;;;;;;16.60;73.70;;;;;;5071268;28;20073;-82
2022/10/12 13:19:43;;;;;;;;;;;16.50;74.90;;;;;;5072563;28;20386;-82
2022/10/12 13:22:14;;;;;;;;;;;16.30;74.60;;;;;;5082717;28;20401;-81
2022/10/12 13:24:42;;;;;;;;;;;16.20;73.90;;;;;;5065625;28;19924;-81
2022/10/12 13:27:19;;;;;;;;;;;16.20;73.90;;;;;;5068994;28;19916;-81
2022/10/12 13:29:48;;;;;;;;;;;16.60;72.80;;;;;;5062895;28;20449;-81
2022/10/12 13:32:24;;;;;;;;;;;16.80;71.70;;;;;;5076427;28;19927;-81
2022/10/12 13:34:54;;;;;;;;;;;16.80;73.80;;;;;;5068914;28;19960;-81
2022/10/12 13:37:19;;;;;;;;;;;16.90;72.90;;;;;;5078791;28;19930;-81
2022/10/12 13:39:45;;;;;;;;;;;16.90;73.20;;;;;;5078775;28;19916;-81
2022/10/12 13:42:16;;;;;;;;;;;17.10;73.80;;;;;;5071470;28;19923;-81
2022/10/12 13:44:43;;;;;;;;;;;17.00;71.30;;;;;;5082214;28;19950;-81
2022/10/12 13:47:29;;;;;;;;;;;16.80;72.70;;;;;;5077983;28;19916;-81
2022/10/12 13:49:55;;;;;;;;;;;17.00;70.80;;;;;;5070152;28;19916;-80
2022/10/12 13:52:26;;;;;;;;;;;16.70;73.20;;;;;;5082852;28;19936;-79
2022/10/12 13:54:52;;;;;;;;;;;16.80;71.50;;;;;;5074447;28;19924;-79
2022/10/12 13:57:34;;;;;;;;;;;16.40;72.40;;;;;;5067309;28;20342;-79
2022/10/12 13:59:59;;;;;;;;;;;16.60;72.40;;;;;;5072489;28;19913;-79
2022/10/12 14:02:26;;;;;;;;;;;16.70;70.70;;;;;;5050496;28;19968;-79
2022/10/12 14:04:55;;;;;;;;;;;16.50;72.80;;;;;;5048000;28;19989;-79
2022/10/12 14:07:27;;;;;;;;;;;16.60;72.60;;;;;;5047817;28;19943;-79
2022/10/12 14:09:57;;;;;;;;;;;16.80;71.60;;;;;;5048338;28;19917;-79
2022/10/12 14:12:24;;;;;;;;;;;17.00;70.80;;;;;;5045680;28;20000;-81
2022/10/12 14:14:50;;;;;;;;;;;16.80;71.50;;;;;;5030333;28;20368;-79
2022/10/12 14:17:19;;;;;;;;;;;16.70;70.30;;;;;;5048361;28;20450;-79
2022/10/12 14:19:46;;;;;;;;;;;17.10;71.20;;;;;;5048105;28;19928;-79
2022/10/12 14:22:32;;;;;;;;;;;16.70;73.50;;;;;;5047216;28;19920;-78
2022/10/12 14:25:09;;;;;;;;;;;16.60;72.10;;;;;;5046045;28;19912;-79
2022/10/12 14:27:36;;;;;;;;;;;16.50;73.60;;;;;;5029719;28;20460;-79
2022/10/12 14:30:15;;;;;;;;;;;16.80;73.20;;;;;;5047089;28;19961;-79